Time;durP1;ratioP1;P1;durP2;ratioP2;P2;SDS_P1;SDS_P2;PMS_P1;PMS_P2;Temp;Humidity;BMP_temperature;BMP_pressure;BME280_temperature;BME280_humidity;BME280_pressure;Samples;Min_cycle;Max_cycle;Signal;HPM_P1;HPM_P2
2022/03/02 00:00:16;;;;;;;;;;;5.00;99.90;;;;;;5051037;28;20343;-77
2022/03/02 00:02:43;;;;;;;;;;;5.00;99.90;;;;;;5051589;28;19925;-76
2022/03/02 00:05:11;;;;;;;;;;;4.90;99.90;;;;;;5051427;28;19924;-76
2022/03/02 00:07:38;;;;;;;;;;;4.90;99.90;;;;;;5051629;28;19928;-77
2022/03/02 00:10:05;;;;;;;;;;;4.90;99.90;;;;;;5051259;28;20296;-77
2022/03/02 00:12:33;;;;;;;;;;;4.90;99.90;;;;;;5051205;28;19925;-77
2022/03/02 00:15:00;;;;;;;;;;;4.80;99.90;;;;;;5051185;28;19925;-77
2022/03/02 00:17:27;;;;;;;;;;;4.80;99.90;;;;;;5051506;28;19948;-77
2022/03/02 00:19:53;;;;;;;;;;;4.80;99.90;;;;;;5050919;28;19928;-77
2022/03/02 00:22:20;;;;;;;;;;;4.80;99.90;;;;;;5051118;28;19928;-77
2022/03/02 00:24:50;;;;;;;;;;;4.70;99.90;;;;;;5051048;28;19925;-78
2022/03/02 00:27:18;;;;;;;;;;;4.70;99.90;;;;;;5051172;28;20395;-77
2022/03/02 00:29:46;;;;;;;;;;;4.70;99.90;;;;;;5050723;28;19932;-77
2022/03/02 00:32:13;;;;;;;;;;;4.60;99.90;;;;;;5051250;28;19932;-76
2022/03/02 00:34:40;;;;;;;;;;;4.60;99.90;;;;;;5051168;28;19936;-77
2022/03/02 00:37:07;;;;;;;;;;;4.60;99.90;;;;;;5051144;28;19925;-77
2022/03/02 00:39:34;;;;;;;;;;;4.50;99.90;;;;;;5050469;28;19924;-78
2022/03/02 00:42:01;;;;;;;;;;;4.50;99.90;;;;;;5051235;28;19932;-76
2022/03/02 00:44:28;;;;;;;;;;;4.50;99.90;;;;;;5050825;28;19935;-77
2022/03/02 00:46:57;;;;;;;;;;;4.40;99.90;;;;;;5050751;28;19925;-77
2022/03/02 00:49:26;;;;;;;;;;;4.40;99.90;;;;;;5050422;28;19925;-77
2022/03/02 00:51:53;;;;;;;;;;;4.40;99.90;;;;;;5050964;28;19959;-75
2022/03/02 00:54:20;;;;;;;;;;;4.40;99.90;;;;;;5050524;28;19932;-77
2022/03/02 00:56:47;;;;;;;;;;;4.30;99.90;;;;;;5050893;28;19979;-77
2022/03/02 00:59:14;;;;;;;;;;;4.30;99.90;;;;;;5049943;28;20388;-77
2022/03/02 01:01:40;;;;;;;;;;;4.30;99.90;;;;;;5050512;28;19924;-77
2022/03/02 01:04:09;;;;;;;;;;;4.30;99.90;;;;;;5050456;28;19940;-78
2022/03/02 01:06:36;;;;;;;;;;;4.20;99.90;;;;;;5050736;28;19924;-77
2022/03/02 01:09:03;;;;;;;;;;;4.20;99.90;;;;;;5050354;28;19924;-77
2022/03/02 01:11:30;;;;;;;;;;;4.10;99.90;;;;;;5050557;28;19925;-78
2022/03/02 01:13:57;;;;;;;;;;;4.00;99.90;;;;;;5050659;28;19975;-77
2022/03/02 01:16:23;;;;;;;;;;;4.00;99.90;;;;;;5050741;28;19925;-77
2022/03/02 01:18:50;;;;;;;;;;;3.90;99.90;;;;;;5050012;28;19933;-75
2022/03/02 01:21:18;;;;;;;;;;;3.90;99.90;;;;;;5050606;28;20376;-78
2022/03/02 01:23:45;;;;;;;;;;;3.80;99.90;;;;;;5050730;28;19929;-76
2022/03/02 01:26:12;;;;;;;;;;;3.80;99.90;;;;;;5050582;28;19925;-77
2022/03/02 01:28:39;;;;;;;;;;;3.70;99.90;;;;;;5050632;28;19929;-76
2022/03/02 01:31:06;;;;;;;;;;;3.70;99.90;;;;;;5050065;28;20416;-77
2022/03/02 01:33:33;;;;;;;;;;;3.70;99.90;;;;;;5050694;28;19925;-77
2022/03/02 01:35:59;;;;;;;;;;;3.60;99.90;;;;;;5050742;28;19924;-76
2022/03/02 01:38:28;;;;;;;;;;;3.60;99.90;;;;;;5050236;28;19932;-76
2022/03/02 01:40:55;;;;;;;;;;;3.50;99.90;;;;;;5050141;28;19990;-77
2022/03/02 01:43:22;;;;;;;;;;;3.50;99.90;;;;;;5050688;28;19975;-77
2022/03/02 01:45:49;;;;;;;;;;;3.40;99.90;;;;;;5050507;28;19990;-77
2022/03/02 01:48:15;;;;;;;;;;;3.40;99.90;;;;;;5054778;28;20331;-78
2022/03/02 01:50:42;;;;;;;;;;;3.20;99.90;;;;;;5058356;28;19924;-76
2022/03/02 01:53:09;;;;;;;;;;;3.20;99.90;;;;;;5050249;28;19925;-77
2022/03/02 01:55:37;;;;;;;;;;;3.20;99.90;;;;;;5050461;28;19928;-77
2022/03/02 01:58:04;;;;;;;;;;;3.20;99.90;;;;;;5050140;28;20395;-77
2022/03/02 02:00:31;;;;;;;;;;;3.10;99.90;;;;;;5049633;28;19925;-77
2022/03/02 02:02:58;;;;;;;;;;;3.10;99.90;;;;;;5049911;28;19928;-77
2022/03/02 02:05:25;;;;;;;;;;;3.10;99.90;;;;;;5049927;28;19971;-77
2022/03/02 02:07:52;;;;;;;;;;;3.00;99.90;;;;;;5050040;28;19932;-76
2022/03/02 02:10:19;;;;;;;;;;;3.00;99.90;;;;;;5049940;28;19931;-77
2022/03/02 02:12:47;;;;;;;;;;;2.90;99.90;;;;;;5052375;28;19979;-76
2022/03/02 02:15:14;;;;;;;;;;;2.90;99.90;;;;;;5053932;28;19929;-77
2022/03/02 02:17:41;;;;;;;;;;;2.80;99.90;;;;;;5053827;28;19959;-77
2022/03/02 02:20:09;;;;;;;;;;;2.70;99.90;;;;;;5052965;28;20400;-76
2022/03/02 02:22:41;;;;;;;;;;;2.60;99.90;;;;;;5053382;28;19925;-76
2022/03/02 02:25:08;;;;;;;;;;;2.60;99.90;;;;;;5053532;28;19925;-77
2022/03/02 02:27:35;;;;;;;;;;;2.60;99.90;;;;;;5053408;28;19925;-77
2022/03/02 02:30:02;;;;;;;;;;;2.50;99.90;;;;;;5052690;28;19925;-77
2022/03/02 02:32:29;;;;;;;;;;;2.40;99.90;;;;;;5053493;28;20426;-77
2022/03/02 02:34:57;;;;;;;;;;;2.40;99.90;;;;;;5052694;28;19925;-76
2022/03/02 02:37:24;;;;;;;;;;;2.30;99.90;;;;;;5053440;28;20346;-78
2022/03/02 02:40:00;;;;;;;;;;;2.20;99.90;;;;;;5052486;28;19974;-77
2022/03/02 02:42:27;;;;;;;;;;;2.10;99.90;;;;;;5053169;28;20384;-76
2022/03/02 02:44:54;;;;;;;;;;;2.10;99.90;;;;;;5053122;28;19956;-77
2022/03/02 02:47:21;;;;;;;;;;;2.00;99.90;;;;;;5053330;28;19925;-77
2022/03/02 02:49:48;;;;;;;;;;;1.90;99.90;;;;;;5052369;28;19925;-77
2022/03/02 02:52:15;;;;;;;;;;;1.90;99.90;;;;;;5093808;22;19924;-76
2022/03/02 02:54:42;;;;;;;;;;;1.80;99.90;;;;;;5092865;28;19931;-76
2022/03/02 02:57:10;;;;;;;;;;;1.80;99.90;;;;;;5092895;28;20437;-76
2022/03/02 02:59:37;;;;;;;;;;;1.80;99.90;;;;;;5093817;28;19924;-76
2022/03/02 03:02:04;;;;;;;;;;;1.80;99.90;;;;;;5093317;28;20383;-76
2022/03/02 03:04:30;;;;;;;;;;;1.80;99.90;;;;;;5094371;28;19946;-75
2022/03/02 03:06:57;;;;;;;;;;;1.80;99.90;;;;;;5094062;28;19932;-77
2022/03/02 03:09:24;;;;;;;;;;;1.80;99.90;;;;;;5092398;28;19931;-77
2022/03/02 03:11:50;;;;;;;;;;;1.70;99.90;;;;;;5092570;28;20408;-76
2022/03/02 03:14:19;;;;;;;;;;;1.70;99.90;;;;;;5094077;28;19924;-76
2022/03/02 03:16:46;;;;;;;;;;;1.70;99.90;;;;;;5092998;28;19928;-77
2022/03/02 03:19:12;;;;;;;;;;;1.70;99.90;;;;;;5092050;28;19928;-76
2022/03/02 03:21:39;;;;;;;;;;;1.80;99.90;;;;;;5092613;28;19931;-78
2022/03/02 03:24:06;;;;;;;;;;;1.80;99.90;;;;;;5092245;28;19928;-76
2022/03/02 03:26:33;;;;;;;;;;;1.90;99.90;;;;;;5092269;28;19924;-76
2022/03/02 03:29:00;;;;;;;;;;;1.90;99.90;;;;;;5091827;28;19947;-76
2022/03/02 03:31:28;;;;;;;;;;;1.90;99.90;;;;;;5092290;28;19924;-76
2022/03/02 03:33:55;;;;;;;;;;;1.90;99.90;;;;;;5092255;28;19985;-76
2022/03/02 03:36:22;;;;;;;;;;;2.00;99.90;;;;;;5092521;28;20430;-76
2022/03/02 03:38:49;;;;;;;;;;;2.00;99.90;;;;;;5091622;28;20402;-75
2022/03/02 03:41:15;;;;;;;;;;;2.00;99.90;;;;;;5092219;28;20129;-76
2022/03/02 03:43:43;;;;;;;;;;;2.10;99.90;;;;;;5091957;28;19931;-76
2022/03/02 03:46:10;;;;;;;;;;;2.10;99.90;;;;;;5091980;28;19928;-76
2022/03/02 03:48:38;;;;;;;;;;;2.20;99.90;;;;;;5092116;28;19950;-76
2022/03/02 03:51:06;;;;;;;;;;;2.20;99.90;;;;;;5091645;28;19924;-77
2022/03/02 03:53:33;;;;;;;;;;;2.20;99.90;;;;;;5108776;28;19931;-77
2022/03/02 03:56:00;;;;;;;;;;;2.20;99.90;;;;;;5091769;28;19924;-76
2022/03/02 03:58:27;;;;;;;;;;;2.20;99.90;;;;;;5092030;28;19931;-76
2022/03/02 04:00:53;;;;;;;;;;;2.20;99.90;;;;;;5091464;28;19931;-77
2022/03/02 04:03:20;;;;;;;;;;;2.30;99.90;;;;;;5092000;28;19928;-76
2022/03/02 04:05:48;;;;;;;;;;;2.30;99.90;;;;;;5091774;28;19924;-75
2022/03/02 04:08:15;;;;;;;;;;;2.20;99.90;;;;;;5091945;28;19924;-76
2022/03/02 04:10:42;;;;;;;;;;;2.20;99.90;;;;;;5091207;28;19924;-76
2022/03/02 04:13:09;;;;;;;;;;;2.20;99.90;;;;;;5091790;28;19924;-76
2022/03/02 04:15:37;;;;;;;;;;;2.20;99.90;;;;;;5091735;28;19940;-77
2022/03/02 04:18:06;;;;;;;;;;;2.20;99.90;;;;;;5091884;28;19947;-76
2022/03/02 04:20:33;;;;;;;;;;;2.20;99.90;;;;;;5090935;28;20410;-76
2022/03/02 04:23:01;;;;;;;;;;;2.20;99.90;;;;;;5091668;28;19932;-76
2022/03/02 04:25:28;;;;;;;;;;;2.20;99.90;;;;;;5091468;28;19924;-75
2022/03/02 04:27:54;;;;;;;;;;;2.20;99.90;;;;;;5091139;28;19924;-76
2022/03/02 04:30:21;;;;;;;;;;;2.20;99.90;;;;;;5091115;28;19924;-75
2022/03/02 04:32:48;;;;;;;;;;;2.20;99.90;;;;;;5091362;28;19947;-76
2022/03/02 04:35:15;;;;;;;;;;;2.20;99.90;;;;;;5090371;28;20361;-76
2022/03/02 04:37:43;;;;;;;;;;;2.20;99.90;;;;;;5091024;28;20341;-76
2022/03/02 04:40:12;;;;;;;;;;;2.20;99.90;;;;;;5091002;28;19931;-76
2022/03/02 04:42:39;;;;;;;;;;;2.30;99.90;;;;;;5091048;28;19928;-75
2022/03/02 04:45:06;;;;;;;;;;;2.30;99.90;;;;;;5091108;28;19931;-75
2022/03/02 04:47:33;;;;;;;;;;;2.30;99.90;;;;;;5090994;28;19931;-76
2022/03/02 04:50:00;;;;;;;;;;;2.30;99.90;;;;;;5090917;28;19931;-76
2022/03/02 04:52:27;;;;;;;;;;;2.40;99.90;;;;;;5090807;28;19928;-75
2022/03/02 04:55:09;;;;;;;;;;;2.40;99.90;;;;;;5091329;28;20028;-76
2022/03/02 04:57:39;;;;;;;;;;;2.40;99.90;;;;;;5090982;28;19963;-76
2022/03/02 05:00:08;;;;;;;;;;;2.40;99.90;;;;;;5090359;28;19935;-76
2022/03/02 05:02:34;;;;;;;;;;;2.30;99.90;;;;;;5090480;28;19967;-76
2022/03/02 05:05:01;;;;;;;;;;;2.30;99.90;;;;;;5090865;28;19928;-76
2022/03/02 05:07:28;;;;;;;;;;;2.30;99.90;;;;;;5090988;28;19949;-77
2022/03/02 05:09:54;;;;;;;;;;;2.20;99.90;;;;;;5107741;28;19931;-77
2022/03/02 05:12:21;;;;;;;;;;;2.20;99.90;;;;;;5090815;28;19981;-77
2022/03/02 05:14:50;;;;;;;;;;;2.20;99.90;;;;;;5091039;28;20023;-77
2022/03/02 05:17:17;;;;;;;;;;;2.10;99.90;;;;;;5090618;28;19928;-78
2022/03/02 05:19:43;;;;;;;;;;;2.10;99.90;;;;;;5090590;28;19924;-77
2022/03/02 05:22:10;;;;;;;;;;;2.10;99.90;;;;;;5090599;28;20403;-74
2022/03/02 05:24:37;;;;;;;;;;;2.10;99.90;;;;;;5090555;28;20024;-78
2022/03/02 05:27:04;;;;;;;;;;;2.00;99.90;;;;;;5090856;28;20307;-77
2022/03/02 05:29:31;;;;;;;;;;;2.00;99.90;;;;;;5090427;28;19946;-77
2022/03/02 05:32:00;;;;;;;;;;;2.00;99.90;;;;;;5107645;28;19924;-76
2022/03/02 05:34:26;;;;;;;;;;;2.00;99.90;;;;;;5090720;28;19928;-77
2022/03/02 05:36:55;;;;;;;;;;;2.00;99.90;;;;;;5091030;28;20371;-77
2022/03/02 05:39:23;;;;;;;;;;;1.90;99.90;;;;;;5090635;28;19924;-76
2022/03/02 05:41:50;;;;;;;;;;;1.90;99.90;;;;;;5090791;28;19932;-77
2022/03/02 05:44:17;;;;;;;;;;;1.90;99.90;;;;;;5090787;28;19924;-76
2022/03/02 05:46:44;;;;;;;;;;;1.90;99.90;;;;;;5093259;28;19924;-77
2022/03/02 05:49:13;;;;;;;;;;;1.90;99.90;;;;;;5093963;28;19924;-76
2022/03/02 05:51:40;;;;;;;;;;;1.80;99.90;;;;;;5094335;28;20467;-76
2022/03/02 05:54:08;;;;;;;;;;;1.90;99.90;;;;;;5094188;28;19928;-77
2022/03/02 05:56:37;;;;;;;;;;;1.90;99.90;;;;;;5094293;28;19924;-76
2022/03/02 05:59:04;;;;;;;;;;;1.90;99.90;;;;;;5093615;28;19924;-76
2022/03/02 06:01:31;;;;;;;;;;;2.00;99.90;;;;;;5094335;28;19932;-74
2022/03/02 06:03:58;;;;;;;;;;;2.00;99.90;;;;;;5107111;28;19928;-75
2022/03/02 06:06:26;;;;;;;;;;;2.00;99.90;;;;;;5096015;28;20342;-75
2022/03/02 06:08:53;;;;;;;;;;;2.10;99.90;;;;;;5093675;28;19927;-76
2022/03/02 06:11:20;;;;;;;;;;;2.10;99.90;;;;;;5093980;28;19931;-77
2022/03/02 06:13:47;;;;;;;;;;;2.20;99.90;;;;;;5094225;28;19924;-76
2022/03/02 06:16:14;;;;;;;;;;;2.20;99.90;;;;;;5093974;28;19931;-76
2022/03/02 06:18:41;;;;;;;;;;;2.20;99.90;;;;;;5093633;28;19981;-76
2022/03/02 06:21:08;;;;;;;;;;;2.20;99.90;;;;;;5094046;28;19928;-77
2022/03/02 06:23:37;;;;;;;;;;;2.30;99.90;;;;;;5094400;28;19928;-77
2022/03/02 06:26:04;;;;;;;;;;;2.30;99.90;;;;;;5093614;28;20435;-75
2022/03/02 06:28:31;;;;;;;;;;;2.30;99.90;;;;;;5107071;28;19932;-74
2022/03/02 06:30:58;;;;;;;;;;;2.20;99.90;;;;;;5086721;28;19924;-74
2022/03/02 06:33:24;;;;;;;;;;;2.20;99.90;;;;;;5090100;28;19931;-77
2022/03/02 06:35:51;;;;;;;;;;;2.20;99.90;;;;;;5093484;28;19928;-84
2022/03/02 06:38:19;;;;;;;;;;;2.20;99.90;;;;;;5085626;28;20383;-76
2022/03/02 06:40:55;;;;;;;;;;;2.20;99.90;;;;;;5088351;28;19924;-77
2022/03/02 06:43:23;;;;;;;;;;;2.30;99.90;;;;;;5082715;28;19931;-77
2022/03/02 06:45:54;;;;;;;;;;;2.30;99.90;;;;;;5089965;28;19927;-77
2022/03/02 06:48:21;;;;;;;;;;;2.40;99.90;;;;;;5093496;28;19928;-76
2022/03/02 06:50:51;;;;;;;;;;;2.40;99.90;;;;;;5092755;28;19935;-77
2022/03/02 06:53:19;;;;;;;;;;;2.40;99.90;;;;;;5093008;28;20494;-77
2022/03/02 06:55:46;;;;;;;;;;;2.50;99.90;;;;;;5093016;28;19946;-76
2022/03/02 06:58:14;;;;;;;;;;;2.50;99.90;;;;;;5092605;28;19924;-77
2022/03/02 07:00:43;;;;;;;;;;;2.50;99.90;;;;;;5092803;28;19924;-77
2022/03/02 07:03:11;;;;;;;;;;;2.60;99.90;;;;;;5093203;28;20392;-76
2022/03/02 07:05:38;;;;;;;;;;;2.60;99.90;;;;;;5093157;28;19931;-77
2022/03/02 07:08:05;;;;;;;;;;;2.60;99.90;;;;;;5093062;28;19931;-77
2022/03/02 07:10:33;;;;;;;;;;;2.70;99.90;;;;;;5093600;28;19924;-76
2022/03/02 07:13:01;;;;;;;;;;;2.70;99.90;;;;;;5093023;28;20026;-76
2022/03/02 07:15:30;;;;;;;;;;;2.80;99.90;;;;;;5093017;28;20022;-73
2022/03/02 07:17:58;;;;;;;;;;;2.80;99.90;;;;;;5092650;28;20026;-77
2022/03/02 07:20:26;;;;;;;;;;;2.80;99.90;;;;;;5092313;28;19928;-77
2022/03/02 07:22:57;;;;;;;;;;;2.90;99.90;;;;;;5090308;28;19932;-77
2022/03/02 07:25:27;;;;;;;;;;;2.90;99.90;;;;;;5091156;28;19977;-77
2022/03/02 07:27:55;;;;;;;;;;;3.00;99.90;;;;;;5091527;28;20298;-76
2022/03/02 07:30:22;;;;;;;;;;;3.10;99.90;;;;;;5091243;28;19924;-76
2022/03/02 07:32:54;;;;;;;;;;;3.10;99.90;;;;;;5091427;28;19928;-76
2022/03/02 07:35:23;;;;;;;;;;;3.20;99.90;;;;;;5091611;28;19928;-77
2022/03/02 07:37:51;;;;;;;;;;;3.30;99.90;;;;;;5091450;28;19931;-75
2022/03/02 07:40:18;;;;;;;;;;;3.30;99.90;;;;;;5091134;28;19924;-75
2022/03/02 07:42:45;;;;;;;;;;;3.40;99.90;;;;;;5091217;28;19928;-76
2022/03/02 07:45:12;;;;;;;;;;;3.50;99.90;;;;;;5091173;28;20279;-76
2022/03/02 07:47:39;;;;;;;;;;;3.50;99.90;;;;;;5091205;28;19924;-75
2022/03/02 07:50:08;;;;;;;;;;;3.60;99.90;;;;;;5090633;28;19924;-76
2022/03/02 07:52:37;;;;;;;;;;;3.70;99.90;;;;;;5089881;28;19924;-76
2022/03/02 07:55:07;;;;;;;;;;;3.80;99.90;;;;;;5091263;28;20046;-77
2022/03/02 07:57:34;;;;;;;;;;;3.80;99.90;;;;;;5090893;28;19930;-78
2022/03/02 08:00:03;;;;;;;;;;;3.90;99.90;;;;;;5090449;28;20276;-76
2022/03/02 08:02:32;;;;;;;;;;;4.00;99.90;;;;;;5092598;28;19928;-77
2022/03/02 08:04:59;;;;;;;;;;;4.10;99.90;;;;;;5091159;28;19924;-78
2022/03/02 08:07:27;;;;;;;;;;;4.20;99.90;;;;;;5090618;28;19967;-77
2022/03/02 08:09:54;;;;;;;;;;;4.20;99.90;;;;;;5107872;28;20425;-77
2022/03/02 08:12:22;;;;;;;;;;;4.30;99.90;;;;;;5109463;28;19930;-78
2022/03/02 08:14:48;;;;;;;;;;;4.40;99.90;;;;;;5111094;28;19933;-77
2022/03/02 08:17:15;;;;;;;;;;;4.50;99.90;;;;;;5111207;28;19924;-77
2022/03/02 08:19:42;;;;;;;;;;;4.60;99.90;;;;;;5110833;28;19930;-77
2022/03/02 08:22:12;;;;;;;;;;;4.60;99.90;;;;;;5111035;28;19930;-78
2022/03/02 08:24:42;;;;;;;;;;;4.70;99.90;;;;;;5111046;28;19972;-77
2022/03/02 08:27:11;;;;;;;;;;;4.70;99.90;;;;;;5110928;28;19934;-80
2022/03/02 08:29:38;;;;;;;;;;;4.70;99.90;;;;;;5103701;28;19924;-76
2022/03/02 08:32:06;;;;;;;;;;;4.80;99.90;;;;;;5090241;28;19931;-76
2022/03/02 08:34:33;;;;;;;;;;;4.80;99.90;;;;;;5090750;28;19930;-77
2022/03/02 08:37:00;;;;;;;;;;;4.80;99.90;;;;;;5090460;28;19928;-78
2022/03/02 08:39:29;;;;;;;;;;;4.80;99.90;;;;;;5087091;28;20201;-77
2022/03/02 08:41:57;;;;;;;;;;;4.90;99.90;;;;;;5090087;28;20337;-77
2022/03/02 08:44:24;;;;;;;;;;;4.90;99.90;;;;;;5089735;28;20367;-75
2022/03/02 08:46:51;;;;;;;;;;;5.00;99.90;;;;;;5090219;28;19924;-77
2022/03/02 08:49:19;;;;;;;;;;;5.00;99.90;;;;;;5090032;28;20014;-77
2022/03/02 08:51:46;;;;;;;;;;;5.00;99.90;;;;;;5090045;28;19924;-77
2022/03/02 08:54:13;;;;;;;;;;;5.00;99.90;;;;;;5090027;28;19924;-79
2022/03/02 08:56:43;;;;;;;;;;;5.00;99.90;;;;;;5090142;28;19959;-77
2022/03/02 08:59:13;;;;;;;;;;;5.10;99.90;;;;;;5089580;28;19935;-77
2022/03/02 09:01:43;;;;;;;;;;;5.10;99.90;;;;;;5089935;28;19927;-77
2022/03/02 09:04:14;;;;;;;;;;;5.20;99.90;;;;;;5090758;28;19928;-76
2022/03/02 09:06:41;;;;;;;;;;;5.30;99.90;;;;;;5090590;28;19928;-78
2022/03/02 09:09:08;;;;;;;;;;;5.40;99.90;;;;;;5089390;28;19924;-78
2022/03/02 09:11:35;;;;;;;;;;;5.40;99.90;;;;;;5089733;28;19928;-78
2022/03/02 09:14:02;;;;;;;;;;;5.50;99.90;;;;;;5090051;28;19925;-78
2022/03/02 09:16:30;;;;;;;;;;;5.60;99.90;;;;;;5089725;28;19925;-78
2022/03/02 09:18:57;;;;;;;;;;;5.70;99.90;;;;;;5089377;28;19931;-78
2022/03/02 09:21:25;;;;;;;;;;;5.80;99.90;;;;;;5091791;28;19924;-78
2022/03/02 09:23:54;;;;;;;;;;;5.90;99.90;;;;;;5093916;28;19939;-78
2022/03/02 09:26:23;;;;;;;;;;;6.00;99.90;;;;;;5094137;28;19985;-76
2022/03/02 09:28:52;;;;;;;;;;;6.00;99.90;;;;;;5093550;28;19928;-77
2022/03/02 09:31:22;;;;;;;;;;;6.10;99.90;;;;;;5093736;28;19963;-79
2022/03/02 09:33:54;;;;;;;;;;;6.20;99.90;;;;;;5093643;28;19990;-80
2022/03/02 09:36:22;;;;;;;;;;;6.30;99.90;;;;;;5093695;28;19928;-78
2022/03/02 09:38:49;;;;;;;;;;;6.40;99.90;;;;;;5110283;28;19928;-75
2022/03/02 09:41:20;;;;;;;;;;;6.40;99.90;;;;;;5093520;28;19928;-78
2022/03/02 09:43:50;;;;;;;;;;;6.50;99.90;;;;;;5093601;28;19924;-78
2022/03/02 09:46:18;;;;;;;;;;;6.60;99.90;;;;;;5093569;28;20391;-78
2022/03/02 09:48:48;;;;;;;;;;;6.60;99.90;;;;;;5093244;28;19928;-78
2022/03/02 09:51:18;;;;;;;;;;;6.70;99.90;;;;;;5093157;28;19931;-78
2022/03/02 09:53:48;;;;;;;;;;;6.80;99.90;;;;;;5093457;28;19927;-78
2022/03/02 09:56:15;;;;;;;;;;;6.90;99.90;;;;;;5093608;28;19974;-78
2022/03/02 09:58:43;;;;;;;;;;;7.00;99.90;;;;;;5092985;28;19924;-79
2022/03/02 10:01:15;;;;;;;;;;;7.20;99.90;;;;;;5093120;28;19925;-78
2022/03/02 10:03:45;;;;;;;;;;;7.20;99.90;;;;;;5093081;28;19964;-79
2022/03/02 10:06:12;;;;;;;;;;;7.30;99.90;;;;;;5093406;28;19924;-78
2022/03/02 10:08:46;;;;;;;;;;;7.30;99.90;;;;;;5092582;28;19924;-77
2022/03/02 10:11:15;;;;;;;;;;;7.40;99.90;;;;;;5102039;28;19924;-78
2022/03/02 10:13:42;;;;;;;;;;;7.50;99.90;;;;;;5113435;28;19931;-78
2022/03/02 10:16:10;;;;;;;;;;;7.60;99.90;;;;;;5113268;28;20332;-79
2022/03/02 10:18:36;;;;;;;;;;;7.70;99.90;;;;;;5114195;28;19931;-79
2022/03/02 10:21:05;;;;;;;;;;;7.80;99.90;;;;;;5113623;28;19923;-78
2022/03/02 10:23:37;;;;;;;;;;;7.90;99.90;;;;;;5114179;28;19924;-78
2022/03/02 10:26:07;;;;;;;;;;;8.10;99.90;;;;;;5099890;28;19927;-78
2022/03/02 10:28:43;;;;;;;;;;;8.20;99.90;;;;;;5091519;28;19924;-78
2022/03/02 10:31:29;;;;;;;;;;;8.40;99.90;;;;;;5092460;28;19967;-77
2022/03/02 10:33:56;;;;;;;;;;;8.50;99.90;;;;;;5091929;28;20406;-77
2022/03/02 10:36:26;;;;;;;;;;;8.60;99.90;;;;;;5092543;28;20401;-74
2022/03/02 10:39:02;;;;;;;;;;;8.70;99.90;;;;;;5092456;28;19931;-79
2022/03/02 10:41:34;;;;;;;;;;;8.90;99.90;;;;;;5092449;28;19928;-72
2022/03/02 10:44:05;;;;;;;;;;;9.10;99.90;;;;;;5093404;28;19928;-76
2022/03/02 10:46:32;;;;;;;;;;;9.30;99.90;;;;;;5102852;28;19928;-75
2022/03/02 10:49:04;;;;;;;;;;;9.50;99.90;;;;;;5092766;28;19928;-76
2022/03/02 10:51:31;;;;;;;;;;;9.50;99.90;;;;;;5093398;28;19928;-76
2022/03/02 10:54:01;;;;;;;;;;;9.60;99.90;;;;;;5093138;28;19928;-76
2022/03/02 10:56:29;;;;;;;;;;;9.70;99.90;;;;;;5093240;28;19924;-76
2022/03/02 10:58:58;;;;;;;;;;;9.80;99.90;;;;;;5093099;28;19924;-75
2022/03/02 11:01:25;;;;;;;;;;;10.00;99.90;;;;;;5093184;28;19924;-75
2022/03/02 11:03:52;;;;;;;;;;;10.20;99.90;;;;;;5092592;28;19928;-73
2022/03/02 11:06:20;;;;;;;;;;;11.50;99.90;;;;;;5091466;28;19923;-75
2022/03/02 11:08:47;;;;;;;;;;;17.30;99.90;;;;;;5091236;28;19924;-74
2022/03/02 11:11:14;;;;;;;;;;;21.10;99.80;;;;;;5091785;28;19974;-75
2022/03/02 11:13:41;;;;;;;;;;;23.60;98.50;;;;;;5091582;28;19924;-76
2022/03/02 11:16:09;;;;;;;;;;;25.60;98.20;;;;;;5090408;28;19928;-76
2022/03/02 11:18:37;;;;;;;;;;;26.90;95.90;;;;;;5091101;28;20312;-76
2022/03/02 11:21:05;;;;;;;;;;;28.40;95.70;;;;;;5091340;28;20418;-75
2022/03/02 11:23:34;;;;;;;;;;;28.40;93.20;;;;;;5091143;28;19935;-75
2022/03/02 11:26:04;;;;;;;;;;;28.70;93.40;;;;;;5092663;28;20412;-75
2022/03/02 11:28:31;;;;;;;;;;;29.00;92.50;;;;;;5092216;28;19931;-74
2022/03/02 11:31:01;;;;;;;;;;;27.60;91.10;;;;;;5092174;28;19936;-75
2022/03/02 11:33:30;;;;;;;;;;;27.90;90.60;;;;;;5092190;28;19999;-74
2022/03/02 11:36:00;;;;;;;;;;;28.90;91.50;;;;;;5092054;28;19931;-75
2022/03/02 11:38:29;;;;;;;;;;;28.60;89.80;;;;;;5092053;28;19924;-74
2022/03/02 11:40:56;;;;;;;;;;;28.00;87.50;;;;;;5091886;28;19989;-75
2022/03/02 11:43:25;;;;;;;;;;;27.80;86.80;;;;;;5091823;28;19925;-75
2022/03/02 11:45:56;;;;;;;;;;;28.60;86.70;;;;;;5091162;28;19944;-75
2022/03/02 11:48:24;;;;;;;;;;;30.40;88.00;;;;;;5090547;28;19924;-74
2022/03/02 11:51:13;;;;;;;;;;;31.60;88.30;;;;;;5089454;28;20342;-75
2022/03/02 11:53:41;;;;;;;;;;;31.60;85.00;;;;;;5090406;28;20519;-76
2022/03/02 11:56:12;;;;;;;;;;;30.90;83.10;;;;;;5090833;28;19924;-76
2022/03/02 11:58:59;;;;;;;;;;;30.00;83.20;;;;;;5107483;28;19924;-74
2022/03/02 12:01:26;;;;;;;;;;;29.90;83.50;;;;;;5107944;28;19924;-75
2022/03/02 12:03:57;;;;;;;;;;;28.90;81.30;;;;;;5090756;28;19928;-75
2022/03/02 12:06:26;;;;;;;;;;;30.00;82.20;;;;;;5091827;28;20026;-75
2022/03/02 12:08:53;;;;;;;;;;;30.20;81.60;;;;;;5090055;28;19932;-75
2022/03/02 12:11:23;;;;;;;;;;;29.50;79.80;;;;;;5105758;28;20388;-73
2022/03/02 12:14:00;;;;;;;;;;;29.40;78.50;;;;;;5088301;28;20413;-76
2022/03/02 12:16:36;;;;;;;;;;;29.40;78.10;;;;;;5090535;28;19924;-75
2022/03/02 12:19:03;;;;;;;;;;;30.20;78.20;;;;;;5089331;28;19924;-76
2022/03/02 12:21:31;;;;;;;;;;;30.00;77.50;;;;;;5090123;28;20019;-75
2022/03/02 12:24:00;;;;;;;;;;;30.20;77.00;;;;;;5107764;28;19928;-76
2022/03/02 12:26:27;;;;;;;;;;;29.30;77.50;;;;;;5090200;28;20414;-75
2022/03/02 12:28:57;;;;;;;;;;;28.70;76.10;;;;;;5090097;28;19951;-75
2022/03/02 12:31:30;;;;;;;;;;;29.80;76.10;;;;;;5091251;28;19924;-76
2022/03/02 12:34:01;;;;;;;;;;;30.20;77.90;;;;;;5090609;28;20028;-75
2022/03/02 12:36:28;;;;;;;;;;;31.60;79.30;;;;;;5090439;28;19924;-77
2022/03/02 12:38:56;;;;;;;;;;;31.40;76.60;;;;;;5090032;28;19927;-76
2022/03/02 12:41:26;;;;;;;;;;;30.10;76.80;;;;;;5107517;28;19928;-73
2022/03/02 12:43:53;;;;;;;;;;;29.00;76.10;;;;;;5088598;28;19928;-74
2022/03/02 12:46:20;;;;;;;;;;;28.10;74.80;;;;;;5107526;28;19924;-76
2022/03/02 12:48:48;;;;;;;;;;;28.10;73.40;;;;;;5089908;28;19932;-74
2022/03/02 12:51:16;;;;;;;;;;;27.30;74.20;;;;;;5090964;28;19924;-72
2022/03/02 12:53:44;;;;;;;;;;;27.00;72.80;;;;;;5090897;28;19967;-72
2022/03/02 12:56:28;;;;;;;;;;;26.10;71.40;;;;;;5090250;28;19930;-72
2022/03/02 12:58:57;;;;;;;;;;;25.90;74.00;;;;;;5090065;28;19928;-71
2022/03/02 13:01:26;;;;;;;;;;;26.90;74.30;;;;;;5090597;28;19928;-69
2022/03/02 13:03:56;;;;;;;;;;;28.50;75.10;;;;;;5091010;28;20078;-72
2022/03/02 13:06:27;;;;;;;;;;;27.90;75.80;;;;;;5090600;28;19959;-72
2022/03/02 13:08:58;;;;;;;;;;;28.50;74.50;;;;;;5090346;28;19928;-72
2022/03/02 13:11:25;;;;;;;;;;;28.50;71.90;;;;;;5089592;28;20391;-74
2022/03/02 13:13:52;;;;;;;;;;;26.00;70.80;;;;;;5089316;28;19924;-77
2022/03/02 13:16:22;;;;;;;;;;;24.70;71.60;;;;;;5089006;28;19924;-75
2022/03/02 13:18:49;;;;;;;;;;;25.50;72.60;;;;;;5089191;28;19928;-73
2022/03/02 13:21:18;;;;;;;;;;;26.20;73.70;;;;;;5089734;28;19924;-76
2022/03/02 13:24:04;;;;;;;;;;;27.10;72.40;;;;;;5089886;28;19924;-76
2022/03/02 13:26:32;;;;;;;;;;;27.20;72.20;;;;;;5090299;28;19928;-76
2022/03/02 13:29:01;;;;;;;;;;;25.80;70.30;;;;;;5089847;28;20066;-76
2022/03/02 13:31:29;;;;;;;;;;;25.40;70.50;;;;;;5089830;28;19932;-76
2022/03/02 13:34:06;;;;;;;;;;;24.60;69.60;;;;;;5106699;28;19924;-75
2022/03/02 13:36:34;;;;;;;;;;;25.30;68.90;;;;;;5090352;28;19924;-72
2022/03/02 13:39:06;;;;;;;;;;;24.60;69.70;;;;;;5083860;28;19924;-75
2022/03/02 13:41:43;;;;;;;;;;;24.50;70.80;;;;;;5087765;28;19930;-76
2022/03/02 13:44:20;;;;;;;;;;;25.20;70.40;;;;;;5088815;28;19947;-76
2022/03/02 13:47:12;;;;;;;;;;;25.40;71.00;;;;;;5088055;28;19924;-76
2022/03/02 13:50:02;;;;;;;;;;;24.90;71.00;;;;;;5088536;28;19932;-76
2022/03/02 13:52:48;;;;;;;;;;;23.30;71.10;;;;;;5074123;28;19932;-76
2022/03/02 13:55:34;;;;;;;;;;;23.10;68.40;;;;;;5085469;28;19932;-76
2022/03/02 13:58:18;;;;;;;;;;;23.00;71.00;;;;;;5069280;28;20019;-77
2022/03/02 14:00:45;;;;;;;;;;;24.00;71.50;;;;;;5068827;28;19929;-76
2022/03/02 14:03:25;;;;;;;;;;;24.40;70.20;;;;;;5088691;28;19924;-76
2022/03/02 14:05:52;;;;;;;;;;;24.50;69.50;;;;;;5079354;28;20357;-76
2022/03/02 14:08:19;;;;;;;;;;;24.10;70.50;;;;;;5088901;28;19931;-75
2022/03/02 14:10:45;;;;;;;;;;;23.40;70.10;;;;;;5097911;28;20332;-74
2022/03/02 14:13:12;;;;;;;;;;;21.70;68.30;;;;;;5113325;28;20413;-76
2022/03/02 14:15:41;;;;;;;;;;;21.70;69.90;;;;;;5113243;28;19931;-75
2022/03/02 14:18:08;;;;;;;;;;;21.90;70.90;;;;;;5113002;28;20318;-76
2022/03/02 14:20:37;;;;;;;;;;;22.10;70.40;;;;;;5113083;28;19924;-75
2022/03/02 14:23:05;;;;;;;;;;;21.90;71.10;;;;;;5113268;28;19927;-77
2022/03/02 14:25:32;;;;;;;;;;;22.30;70.80;;;;;;5113230;28;19930;-76
2022/03/02 14:28:00;;;;;;;;;;;22.60;71.80;;;;;;5112963;28;19928;-75
2022/03/02 14:30:31;;;;;;;;;;;22.80;70.30;;;;;;5112427;28;19930;-77
2022/03/02 14:32:58;;;;;;;;;;;22.80;70.00;;;;;;5112905;28;19967;-77